createdAt,value
2023-11-04T00:01:59.732Z,98516.94
2023-11-04T00:05:02.431Z,98535.34
2023-11-04T00:08:06.009Z,98549.44
2023-11-04T00:11:08.752Z,98572.56
2023-11-04T00:14:11.094Z,98581.97
2023-11-04T00:17:14.363Z,98583.53
2023-11-04T00:20:16.728Z,98578.34
2023-11-04T00:23:19.413Z,98581.22
2023-11-04T00:26:21.891Z,98588.72
2023-11-04T00:29:26.640Z,98582.50
2023-11-04T00:32:29.558Z,98571.25
2023-11-04T00:35:32.273Z,98576.44
2023-11-04T00:38:34.642Z,98567.87
2023-11-04T00:41:37.324Z,98568.63
2023-11-04T00:44:40.017Z,98550.28
2023-11-04T00:47:42.705Z,98559.22
2023-11-04T00:50:45.179Z,98541.78
2023-11-04T00:53:47.886Z,98541.78
2023-11-04T00:56:50.265Z,98573.69
2023-11-04T00:59:53.897Z,98569.34
2023-11-04T01:02:57.036Z,98549.44
2023-11-04T01:05:59.945Z,98567.75
2023-11-04T01:09:04.189Z,98540.06
2023-11-04T01:12:08.058Z,98555.94
2023-11-04T01:15:10.858Z,98546.28
2023-11-04T01:18:13.851Z,98565.00
2023-11-04T01:21:17.883Z,98535.34
2023-11-04T01:24:20.625Z,98566.47
2023-11-04T01:27:23.119Z,98569.97
2023-11-04T01:30:25.823Z,98569.88
2023-11-04T01:33:28.807Z,98547.16
2023-11-04T01:36:31.650Z,98529.28
2023-11-04T01:39:34.898Z,98574.44
2023-11-04T01:42:42.936Z,98518.12
2023-11-04T01:45:45.468Z,98538.09
2023-11-04T01:48:48.787Z,98560.87
2023-11-04T01:51:52.918Z,98578.41
2023-11-04T01:54:55.859Z,98556.28
2023-11-04T01:58:01.806Z,98590.19
2023-11-04T02:01:05.393Z,98587.06
2023-11-04T02:04:08.200Z,98595.50
2023-11-04T02:07:10.651Z,98591.19
2023-11-04T02:10:14.642Z,98598.25
2023-11-04T02:13:17.026Z,98604.91
2023-11-04T02:16:19.984Z,98575.19
2023-11-04T02:19:22.537Z,98576.50
2023-11-04T02:22:26.029Z,98554.03
2023-11-04T02:25:35.858Z,98601.34
2023-11-04T02:28:38.507Z,98588.47
2023-11-04T02:31:40.910Z,98610.66
2023-11-04T02:34:43.710Z,98585.00
2023-11-04T02:37:48.655Z,98605.66
2023-11-04T02:40:51.412Z,98607.28
2023-11-04T02:43:54.674Z,98603.69
2023-11-04T02:47:01.094Z,98574.38
2023-11-04T02:50:03.572Z,98590.22
2023-11-04T02:53:06.324Z,98576.81
2023-11-04T02:56:09.401Z,98560.16
2023-11-04T02:59:12.133Z,98544.44
2023-11-04T03:02:15.492Z,98578.53
2023-11-04T03:05:27.528Z,98589.50
2023-11-04T03:08:35.311Z,98598.13
2023-11-04T03:11:38.027Z,98587.16
2023-11-04T03:14:44.602Z,98595.78
2023-11-04T03:17:47.348Z,98592.72
2023-11-04T03:20:49.828Z,98605.63
2023-11-04T03:23:52.648Z,98587.38
2023-11-04T03:26:56.267Z,98593.22
2023-11-04T03:29:58.882Z,98604.44
2023-11-04T03:33:03.107Z,98615.56
2023-11-04T03:36:06.066Z,98624.22
2023-11-04T03:39:10.121Z,98620.34
2023-11-04T03:42:12.795Z,98605.44
2023-11-04T03:45:15.861Z,98601.13
2023-11-04T03:48:19.063Z,98612.94
2023-11-04T03:51:24.149Z,98625.94
2023-11-04T03:54:26.810Z,98629.41
2023-11-04T03:57:29.217Z,98619.31
2023-11-04T04:00:32.853Z,98622.06
2023-11-04T04:03:35.565Z,98607.69
2023-11-04T04:06:38.098Z,98606.78
2023-11-04T04:09:41.062Z,98637.22
2023-11-04T04:12:43.425Z,98610.62
2023-11-04T04:15:46.368Z,98653.78
2023-11-04T04:18:49.014Z,98648.50
2023-11-04T04:21:51.736Z,98648.62
2023-11-04T04:24:54.396Z,98635.22
2023-11-04T04:27:57.607Z,98611.41
2023-11-04T04:31:00.149Z,98617.62
2023-11-04T04:34:02.910Z,98639.84
2023-11-04T04:37:05.346Z,98637.84
2023-11-04T04:40:08.826Z,98646.91
2023-11-04T04:43:11.200Z,98601.09
2023-11-04T04:46:13.889Z,98625.69
2023-11-04T04:49:16.495Z,98565.16
2023-11-04T04:52:19.304Z,98654.06
2023-11-04T04:55:28.310Z,98654.50
2023-11-04T04:58:41.609Z,98656.88
2023-11-04T05:02:00.752Z,98656.53
2023-11-04T05:05:12.243Z,98652.56
2023-11-04T05:08:21.209Z,98646.31
2023-11-04T05:11:34.395Z,98635.41
2023-11-04T05:14:40.709Z,98536.88
2023-11-04T05:17:55.004Z,98611.09
2023-11-04T05:21:34.798Z,98530.16
2023-11-04T05:24:41.039Z,98615.69
2023-11-04T05:27:43.821Z,98598.13
2023-11-04T05:30:46.611Z,98613.25
2023-11-04T05:33:49.148Z,98587.16
2023-11-04T05:36:54.012Z,98583.97
2023-11-04T05:39:56.547Z,98565.84
2023-11-04T05:42:59.707Z,98594.34
2023-11-04T05:46:05.176Z,98593.94
2023-11-04T05:49:07.947Z,98557.56
2023-11-04T05:52:10.343Z,98599.34
2023-11-04T05:55:13.577Z,98612.25
2023-11-04T05:58:15.985Z,98612.97
2023-11-04T06:01:24.439Z,98616.16
2023-11-04T06:04:27.300Z,98618.12
2023-11-04T06:07:30.363Z,98590.41
2023-11-04T06:10:33.117Z,98620.87
2023-11-04T06:13:36.002Z,98592.78
2023-11-04T06:16:38.808Z,98614.59
2023-11-04T06:19:41.241Z,98612.84
2023-11-04T06:22:44.027Z,98597.25
2023-11-04T06:25:46.416Z,98622.22
2023-11-04T06:28:49.442Z,98621.06
2023-11-04T06:31:51.889Z,98588.47
2023-11-04T06:34:54.554Z,98650.94
2023-11-04T06:37:56.992Z,98641.69
2023-11-04T06:41:00.084Z,98623.50
2023-11-04T06:44:02.437Z,98627.97
2023-11-04T06:47:06.722Z,98613.13
2023-11-04T06:50:09.896Z,98609.47
2023-11-04T06:53:14.001Z,98621.44
2023-11-04T06:56:16.492Z,98627.09
2023-11-04T06:59:20.260Z,98630.00
2023-11-04T07:02:22.601Z,98659.87
2023-11-04T07:05:25.875Z,98658.28
2023-11-04T07:08:28.220Z,98670.13
2023-11-04T07:11:33.428Z,98645.37
2023-11-04T07:14:35.899Z,98677.47
2023-11-04T07:17:39.152Z,98674.34
2023-11-04T07:20:42.581Z,98675.34
2023-11-04T07:23:45.764Z,98709.44
2023-11-04T07:26:48.166Z,98662.06
2023-11-04T07:29:51.132Z,98685.19
2023-11-04T07:32:54.477Z,98688.59
2023-11-04T07:35:57.763Z,98705.34
2023-11-04T07:39:00.304Z,98708.56
2023-11-04T07:42:02.952Z,98710.81
2023-11-04T07:45:05.949Z,98711.69
2023-11-04T07:48:12.360Z,98679.25
2023-11-04T07:51:14.980Z,98713.66
2023-11-04T07:54:18.167Z,98688.94
2023-11-04T07:57:20.754Z,98707.31
2023-11-04T08:00:23.488Z,98711.41
2023-11-04T08:03:27.428Z,98716.31
2023-11-04T08:06:29.999Z,98703.72
2023-11-04T08:09:32.776Z,98667.47
2023-11-04T08:12:35.477Z,98652.69
2023-11-04T08:15:39.627Z,98667.84
2023-11-04T08:18:42.167Z,98673.94
2023-11-04T08:21:45.645Z,98677.16
2023-11-04T08:24:49.065Z,98663.91
2023-11-04T08:27:51.778Z,98641.91
2023-11-04T08:30:54.443Z,98657.75
2023-11-04T08:33:59.471Z,98670.56
2023-11-04T08:37:02.877Z,98684.41
2023-11-04T08:40:06.324Z,98685.06
2023-11-04T08:43:08.826Z,98677.28
2023-11-04T08:46:13.928Z,98676.09
2023-11-04T08:49:16.352Z,98651.37
2023-11-04T08:52:19.140Z,98638.97
2023-11-04T08:55:21.683Z,98644.91
2023-11-04T08:58:24.321Z,98653.94
2023-11-04T09:01:26.778Z,98657.94
2023-11-04T09:04:29.699Z,98660.25
2023-11-04T09:07:32.182Z,98639.34
2023-11-04T09:10:34.894Z,98656.88
2023-11-04T09:13:38.395Z,98661.06
2023-11-04T09:16:41.107Z,98639.00
2023-11-04T09:19:43.592Z,98652.78
2023-11-04T09:22:46.950Z,98647.00
2023-11-04T09:25:50.341Z,98631.69
2023-11-04T09:28:54.440Z,98617.62
2023-11-04T09:31:57.709Z,98627.94
2023-11-04T09:35:01.356Z,98625.47
2023-11-04T09:38:05.845Z,98600.25
2023-11-04T09:41:08.548Z,98603.59
2023-11-04T09:44:11.968Z,98587.22
2023-11-04T09:47:15.652Z,98601.81
2023-11-04T09:50:18.202Z,98595.91
2023-11-04T09:53:27.657Z,98619.53
2023-11-04T09:56:30.034Z,98615.56
2023-11-04T09:59:34.767Z,98608.72
2023-11-04T10:02:37.480Z,98621.81
2023-11-04T10:05:40.959Z,98618.12
2023-11-04T10:08:48.137Z,98613.94
2023-11-04T10:11:51.676Z,98615.81
2023-11-04T10:14:54.068Z,98578.38
2023-11-04T10:17:57.565Z,98593.34
2023-11-04T10:21:01.281Z,98582.22
2023-11-04T10:24:06.167Z,98555.31
2023-11-04T10:27:08.574Z,98577.72
2023-11-04T10:30:12.007Z,98567.81
2023-11-04T10:33:18.474Z,98551.34
2023-11-04T10:36:22.987Z,98562.97
2023-11-04T10:39:28.856Z,98544.31
2023-11-04T10:42:32.687Z,98533.00
2023-11-04T10:45:38.334Z,98550.44
2023-11-04T10:48:51.592Z,98553.75
2023-11-04T10:52:10.051Z,98555.13
2023-11-04T10:55:14.252Z,98536.91
2023-11-04T10:58:28.957Z,98549.59
2023-11-04T11:01:33.150Z,98529.47
2023-11-04T11:04:37.188Z,98535.97
2023-11-04T11:07:44.787Z,98543.78
2023-11-04T11:10:57.706Z,98550.34
2023-11-04T11:14:02.889Z,98525.66
2023-11-04T11:17:09.104Z,98531.69
2023-11-04T11:20:36.855Z,98514.78
2023-11-04T11:23:48.312Z,98523.13
2023-11-04T11:27:01.306Z,98517.56
2023-11-04T11:30:05.709Z,98510.44
2023-11-04T11:33:09.226Z,98506.81
2023-11-04T11:36:17.801Z,98496.00
2023-11-04T11:39:21.571Z,98492.00
2023-11-04T11:42:28.415Z,98492.03
2023-11-04T11:45:31.268Z,98476.09
2023-11-04T11:48:39.708Z,98495.88
2023-11-04T11:51:43.947Z,98499.16
2023-11-04T11:54:46.278Z,98491.41
2023-11-04T11:57:48.939Z,98491.91
2023-11-04T12:00:52.004Z,98495.78
2023-11-04T12:03:55.363Z,98496.81
2023-11-04T12:06:59.142Z,98495.12
2023-11-04T12:10:02.250Z,98480.62
2023-11-04T12:13:04.911Z,98493.44
2023-11-04T12:16:10.186Z,98484.03
2023-11-04T12:19:14.705Z,98476.72
2023-11-04T12:22:17.521Z,98462.78
2023-11-04T12:25:20.033Z,98461.94
2023-11-04T12:28:24.313Z,98484.34
2023-11-04T12:31:30.254Z,98480.28
2023-11-04T12:34:33.077Z,98482.09
2023-11-04T12:37:36.132Z,98453.91
2023-11-04T12:40:43.927Z,98480.62
2023-11-04T12:43:46.916Z,98455.63
2023-11-04T12:46:51.406Z,98476.94
2023-11-04T12:49:54.222Z,98459.41
2023-11-04T12:53:02.296Z,98468.78
2023-11-04T12:56:05.311Z,98468.13
2023-11-04T12:59:08.390Z,98475.50
2023-11-04T13:02:11.079Z,98464.53
2023-11-04T13:05:14.074Z,98488.97
2023-11-04T13:08:16.640Z,98487.84
2023-11-04T13:11:19.339Z,98472.62
2023-11-04T13:14:21.746Z,98482.72
2023-11-04T13:17:25.472Z,98461.56
2023-11-04T13:20:28.010Z,98485.88
2023-11-04T13:23:30.754Z,98479.94
2023-11-04T13:26:33.141Z,98475.25
2023-11-04T13:29:35.873Z,98493.84
2023-11-04T13:32:38.647Z,98497.38
2023-11-04T13:35:41.760Z,98479.66
2023-11-04T13:38:44.610Z,98456.06
2023-11-04T13:41:47.332Z,98479.44
2023-11-04T13:44:49.793Z,98469.72
2023-11-04T13:47:52.686Z,98446.44
2023-11-04T13:50:55.105Z,98437.91
2023-11-04T13:53:57.788Z,98465.19
2023-11-04T13:57:00.130Z,98462.09
2023-11-04T14:00:02.861Z,98491.72
2023-11-04T14:03:07.166Z,98468.47
2023-11-04T14:06:10.077Z,98479.53
2023-11-04T14:09:12.600Z,98453.47
2023-11-04T14:12:15.249Z,98464.53
2023-11-04T14:15:20.341Z,98478.75
2023-11-04T14:18:23.190Z,98470.47
2023-11-04T14:21:25.728Z,98476.37
2023-11-04T14:24:28.348Z,98480.31
2023-11-04T14:27:31.563Z,98454.66
2023-11-04T14:30:34.330Z,98461.37
2023-11-04T14:33:36.790Z,98469.28
2023-11-04T14:36:41.600Z,98478.34
2023-11-04T14:39:44.462Z,98449.50
2023-11-04T14:42:48.041Z,98464.53
2023-11-04T14:45:50.512Z,98472.44
2023-11-04T14:48:53.964Z,98485.84
2023-11-04T14:51:56.404Z,98483.41
2023-11-04T14:54:59.672Z,98468.41
2023-11-04T14:58:02.212Z,98471.56
2023-11-04T15:01:05.095Z,98497.59
2023-11-04T15:04:08.011Z,98457.28
2023-11-04T15:07:11.939Z,98490.47
2023-11-04T15:10:14.337Z,98494.38
2023-11-04T15:13:17.051Z,98460.38
2023-11-04T15:16:19.509Z,98470.63
2023-11-04T15:19:22.275Z,98495.53
2023-11-04T15:22:30.943Z,98492.34
2023-11-04T15:25:33.628Z,98487.19
2023-11-04T15:28:36.143Z,98496.22
2023-11-04T15:31:39.443Z,98491.09
2023-11-04T15:34:45.831Z,98478.00
2023-11-04T15:37:48.507Z,98487.13
2023-11-04T15:40:50.877Z,98471.31
2023-11-04T15:43:53.501Z,98487.09
2023-11-04T15:46:56.219Z,98457.88
2023-11-04T15:50:01.583Z,98484.72
2023-11-04T15:53:04.108Z,98475.97
2023-11-04T15:56:07.426Z,98472.41
2023-11-04T15:59:10.169Z,98497.63
2023-11-04T16:02:12.898Z,98492.47
2023-11-04T16:05:15.994Z,98498.28
2023-11-04T16:08:18.534Z,98493.94
2023-11-04T16:11:21.632Z,98502.62
2023-11-04T16:14:24.012Z,98479.97
2023-11-04T16:17:27.011Z,98507.16
2023-11-04T16:20:29.514Z,98494.03
2023-11-04T16:23:32.824Z,98504.38
2023-11-04T16:26:35.610Z,98501.22
2023-11-04T16:29:38.473Z,98492.16
2023-11-04T16:32:41.232Z,98467.66
2023-11-04T16:35:44.128Z,98480.28
2023-11-04T16:38:46.922Z,98472.34
2023-11-04T16:41:49.602Z,98461.31
2023-11-04T16:44:52.032Z,98454.19
2023-11-04T16:47:54.882Z,98458.16
2023-11-04T16:50:57.701Z,98475.03
2023-11-04T16:54:01.113Z,98438.63
2023-11-04T16:57:06.009Z,98473.44
2023-11-04T17:00:10.941Z,98465.84
2023-11-04T17:03:13.506Z,98448.44
2023-11-04T17:06:16.290Z,98468.16
2023-11-04T17:09:19.984Z,98457.91
2023-11-04T17:12:23.846Z,98463.41
2023-11-04T17:15:26.254Z,98463.84
2023-11-04T17:18:29.033Z,98469.69
2023-11-04T17:21:32.799Z,98463.34
2023-11-04T17:24:35.626Z,98466.03
2023-11-04T17:27:38.776Z,98466.81
2023-11-04T17:30:42.141Z,98460.87
2023-11-04T17:33:46.152Z,98460.09
2023-11-04T17:36:51.449Z,98455.78
2023-11-04T17:39:54.108Z,98454.19
2023-11-04T17:43:00.029Z,98456.94
2023-11-04T17:46:02.393Z,98453.78
2023-11-04T17:49:07.818Z,98451.41
2023-11-04T17:52:10.205Z,98461.50
2023-11-04T17:55:12.849Z,98464.25
2023-11-04T17:58:15.247Z,98463.75
2023-11-04T18:01:17.810Z,98465.75
2023-11-04T18:04:21.873Z,98469.31
2023-11-04T18:07:31.246Z,98466.78
2023-11-04T18:10:44.436Z,98474.59
2023-11-04T18:13:46.834Z,98464.25
2023-11-04T18:16:52.489Z,98469.00
2023-11-04T18:19:57.213Z,98458.75
2023-11-04T18:22:59.918Z,98455.50
2023-11-04T18:26:05.176Z,98463.28
2023-11-04T18:29:07.635Z,98454.72
2023-11-04T18:32:10.972Z,98456.31
2023-11-04T18:35:14.301Z,98467.66
2023-11-04T18:38:16.544Z,98447.59
2023-11-04T18:41:19.156Z,98453.09
2023-11-04T18:44:21.701Z,98451.94
2023-11-04T18:47:25.136Z,98444.50
2023-11-04T18:50:30.830Z,98441.41
2023-11-04T18:53:33.657Z,98435.91
2023-11-04T18:56:35.863Z,98426.41
2023-11-04T18:59:38.388Z,98436.97
2023-11-04T19:02:40.695Z,98433.84
2023-11-04T19:05:43.356Z,98429.44
2023-11-04T19:08:45.505Z,98420.69
2023-11-04T19:11:48.175Z,98430.06
2023-11-04T19:14:53.116Z,98438.31
2023-11-04T19:17:55.582Z,98438.69
2023-11-04T19:20:57.809Z,98433.13
2023-11-04T19:24:00.474Z,98439.37
2023-11-04T19:27:02.582Z,98432.94
2023-11-04T19:30:06.156Z,98444.69
2023-11-04T19:33:08.445Z,98442.25
2023-11-04T19:36:11.173Z,98435.12
2023-11-04T19:39:13.392Z,98440.47
2023-11-04T19:42:15.826Z,98436.25
2023-11-04T19:45:22.912Z,98438.56
2023-11-04T19:48:26.546Z,98441.28
2023-11-04T19:51:28.742Z,98448.78
2023-11-04T19:54:31.223Z,98445.22
2023-11-04T19:57:33.401Z,98465.53
2023-11-04T20:00:36.311Z,98458.19
2023-11-04T20:03:39.020Z,98462.97
2023-11-04T20:06:41.218Z,98459.72
2023-11-04T20:09:45.199Z,98447.22
2023-11-04T20:12:49.498Z,98451.25
2023-11-04T20:15:51.987Z,98450.34
2023-11-04T20:18:54.300Z,98454.19
2023-11-04T20:21:58.046Z,98443.50
2023-11-04T20:25:00.541Z,98449.31
2023-11-04T20:28:03.162Z,98445.38
2023-11-04T20:31:05.648Z,98450.53
2023-11-04T20:34:09.452Z,98453.25
2023-11-04T20:37:12.054Z,98437.50
2023-11-04T20:40:15.822Z,98432.44
2023-11-04T20:43:18.088Z,98419.06
2023-11-04T20:46:20.616Z,98414.06
2023-11-04T20:49:24.024Z,98403.09
2023-11-04T20:52:26.449Z,98400.66
2023-11-04T20:55:31.831Z,98407.31
2023-11-04T20:58:36.359Z,98393.16
2023-11-04T21:01:39.315Z,98375.22
2023-11-04T21:04:42.530Z,98373.31
2023-11-04T21:07:44.837Z,98375.97
2023-11-04T21:10:54.301Z,98367.72
2023-11-04T21:14:05.867Z,98364.88
2023-11-04T21:17:14.492Z,98375.09
2023-11-04T21:20:16.762Z,98377.44
2023-11-04T21:23:21.005Z,98396.22
2023-11-04T21:26:23.553Z,98387.75
2023-11-04T21:29:25.962Z,98385.00
2023-11-04T21:32:28.165Z,98395.97
2023-11-04T21:35:30.650Z,98398.41
2023-11-04T21:38:32.982Z,98393.72
2023-11-04T21:41:35.444Z,98389.84
2023-11-04T21:44:38.287Z,98389.84
2023-11-04T21:47:40.775Z,98376.53
2023-11-04T21:50:43.120Z,98388.28
2023-11-04T21:53:45.588Z,98390.91
2023-11-04T21:56:47.775Z,98388.53
2023-11-04T21:59:52.712Z,98378.59
2023-11-04T22:02:55.359Z,98381.38
2023-11-04T22:05:57.815Z,98386.44
2023-11-04T22:09:01.586Z,98372.75
2023-11-04T22:12:04.162Z,98372.41
2023-11-04T22:15:08.837Z,98366.12
2023-11-04T22:18:11.542Z,98369.28
2023-11-04T22:21:17.345Z,98376.34
2023-11-04T22:24:21.259Z,98367.63
2023-11-04T22:27:24.467Z,98362.87
2023-11-04T22:30:26.935Z,98365.62
2023-11-04T22:33:29.128Z,98367.44
2023-11-04T22:36:31.612Z,98367.88
2023-11-04T22:39:33.710Z,98357.75
2023-11-04T22:42:36.221Z,98359.53
2023-11-04T22:45:38.389Z,98361.22
2023-11-04T22:48:40.966Z,98349.41
2023-11-04T22:51:43.467Z,98351.38
2023-11-04T22:54:45.891Z,98353.31
2023-11-04T22:57:48.059Z,98351.78
2023-11-04T23:00:52.969Z,98347.81
2023-11-04T23:03:56.045Z,98346.31
2023-11-04T23:06:58.590Z,98331.53
2023-11-04T23:10:00.767Z,98328.78
2023-11-04T23:13:03.235Z,98325.31
2023-11-04T23:16:05.705Z,98326.13
2023-11-04T23:19:09.120Z,98327.59
2023-11-04T23:22:11.414Z,98333.94
2023-11-04T23:25:20.701Z,98324.53
2023-11-04T23:28:24.008Z,98307.81
2023-11-04T23:31:27.378Z,98313.00
2023-11-04T23:34:29.670Z,98315.72
2023-11-04T23:37:32.125Z,98313.81
2023-11-04T23:40:35.684Z,98313.06
2023-11-04T23:43:38.130Z,98323.31
2023-11-04T23:46:40.395Z,98314.28
2023-11-04T23:49:46.115Z,98317.88
2023-11-04T23:52:48.331Z,98304.44
2023-11-04T23:55:51.192Z,98314.75
2023-11-04T23:58:53.439Z,98310.06
